createdAt,value
2022-10-02T00:01:24.429Z,12.99
2022-10-02T00:03:53.200Z,12.96
2022-10-02T00:06:24.327Z,12.94
2022-10-02T00:08:58.362Z,12.92
2022-10-02T00:11:33.121Z,12.89
2022-10-02T00:14:03.091Z,12.85
2022-10-02T00:16:37.199Z,12.85
2022-10-02T00:19:05.341Z,12.80
2022-10-02T00:21:50.377Z,12.78
2022-10-02T00:24:23.535Z,12.75
2022-10-02T00:26:56.471Z,12.75
2022-10-02T00:29:32.126Z,12.73
2022-10-02T00:32:16.288Z,12.73
2022-10-02T00:34:58.533Z,12.74
2022-10-02T00:37:38.760Z,12.76
2022-10-02T00:40:33.852Z,12.79
2022-10-02T00:43:11.965Z,12.84
2022-10-02T00:46:05.421Z,12.89
2022-10-02T00:48:58.068Z,12.93
2022-10-02T00:51:42.949Z,12.97
2022-10-02T00:54:26.875Z,12.98
2022-10-02T00:57:07.242Z,12.97
2022-10-02T00:59:55.186Z,12.95
2022-10-02T01:02:49.966Z,12.93
2022-10-02T01:05:20.745Z,12.92
2022-10-02T01:07:51.932Z,12.91
2022-10-02T01:10:22.282Z,12.90
2022-10-02T01:12:50.963Z,12.88
2022-10-02T01:15:21.104Z,12.85
2022-10-02T01:17:52.601Z,12.81
2022-10-02T01:20:25.805Z,12.77
2022-10-02T01:23:01.089Z,12.74
2022-10-02T01:25:30.470Z,12.70
2022-10-02T01:27:58.344Z,12.67
2022-10-02T01:30:26.934Z,12.62
2022-10-02T01:32:57.413Z,12.58
2022-10-02T01:35:28.760Z,12.56
2022-10-02T01:37:56.876Z,12.53
2022-10-02T01:40:27.324Z,12.53
2022-10-02T01:42:59.494Z,12.53
2022-10-02T01:45:39.255Z,12.53
2022-10-02T01:48:14.516Z,12.52
2022-10-02T01:50:52.837Z,12.53
2022-10-02T01:53:29.819Z,12.51
2022-10-02T01:56:08.943Z,12.51
2022-10-02T01:58:50.852Z,12.51
2022-10-02T02:01:29.435Z,12.52
2022-10-02T02:04:05.080Z,12.50
2022-10-02T02:06:39.048Z,12.49
2022-10-02T02:09:12.843Z,12.48
2022-10-02T02:11:45.013Z,12.48
2022-10-02T02:14:18.237Z,12.49
2022-10-02T02:16:50.369Z,12.49
2022-10-02T02:19:23.060Z,12.50
2022-10-02T02:21:55.133Z,12.50
2022-10-02T02:24:27.091Z,12.52
2022-10-02T02:26:57.133Z,12.52
2022-10-02T02:29:29.054Z,12.52
2022-10-02T02:31:59.393Z,12.52
2022-10-02T02:34:31.342Z,12.52
2022-10-02T02:37:03.593Z,12.51
2022-10-02T02:39:38.510Z,12.50
2022-10-02T02:42:09.549Z,12.49
2022-10-02T02:44:42.956Z,12.50
2022-10-02T02:47:14.233Z,12.49
2022-10-02T02:49:52.365Z,12.51
2022-10-02T02:52:26.868Z,12.53
2022-10-02T02:54:59.713Z,12.55
2022-10-02T02:57:33.657Z,12.57
2022-10-02T03:00:04.946Z,12.58
2022-10-02T03:02:32.981Z,12.62
2022-10-02T03:05:00.650Z,12.63
2022-10-02T03:07:28.460Z,12.64
2022-10-02T03:10:03.126Z,12.65
2022-10-02T03:12:43.260Z,12.65
2022-10-02T03:15:26.527Z,12.64
2022-10-02T03:18:20.157Z,12.64
2022-10-02T03:20:56.766Z,12.63
2022-10-02T03:23:35.537Z,12.60
2022-10-02T03:26:09.035Z,12.59
2022-10-02T03:28:56.650Z,12.57
2022-10-02T03:31:29.384Z,12.56
2022-10-02T03:33:59.670Z,12.53
2022-10-02T03:36:27.752Z,12.51
2022-10-02T03:39:23.241Z,12.48
2022-10-02T03:41:46.617Z,12.46
2022-10-02T03:44:14.286Z,12.44
2022-10-02T03:46:43.367Z,12.44
2022-10-02T03:49:11.041Z,12.42
2022-10-02T03:51:38.665Z,12.41
2022-10-02T03:54:14.024Z,12.39
2022-10-02T03:56:47.596Z,12.38
2022-10-02T03:59:23.060Z,12.37
2022-10-02T04:01:55.150Z,12.37
2022-10-02T04:04:27.580Z,12.38
2022-10-02T04:07:01.408Z,12.40
2022-10-02T04:09:32.576Z,12.41
2022-10-02T04:12:07.201Z,12.40
2022-10-02T04:14:39.226Z,12.40
2022-10-02T04:17:13.551Z,12.40
2022-10-02T04:19:47.287Z,12.39
2022-10-02T04:22:22.098Z,12.38
2022-10-02T04:24:51.129Z,12.38
2022-10-02T04:27:23.066Z,12.34
2022-10-02T04:29:56.061Z,12.31
2022-10-02T04:32:27.480Z,12.29
2022-10-02T04:34:55.262Z,12.27
2022-10-02T04:37:42.173Z,12.26
2022-10-02T04:40:24.206Z,12.25
2022-10-02T04:43:08.339Z,12.25
2022-10-02T04:45:54.028Z,12.24
2022-10-02T04:48:57.121Z,12.22
2022-10-02T04:51:39.734Z,12.20
2022-10-02T04:54:28.157Z,12.20
2022-10-02T04:57:08.433Z,12.18
2022-10-02T05:00:06.141Z,12.15
2022-10-02T05:02:43.554Z,12.13
2022-10-02T05:05:32.803Z,12.12
2022-10-02T05:08:14.789Z,12.10
2022-10-02T05:11:14.997Z,12.09
2022-10-02T05:14:10.149Z,12.06
2022-10-02T05:16:55.345Z,12.05
2022-10-02T05:19:37.928Z,12.06
2022-10-02T05:22:19.849Z,12.07
2022-10-02T05:25:06.637Z,12.08
2022-10-02T05:27:50.573Z,12.10
2022-10-02T05:30:19.895Z,12.15
2022-10-02T05:33:02.625Z,12.21
2022-10-02T05:35:51.357Z,12.27
2022-10-02T05:38:35.069Z,12.29
2022-10-02T05:41:07.926Z,12.31
2022-10-02T05:43:43.367Z,12.33
2022-10-02T05:46:16.710Z,12.36
2022-10-02T05:48:47.837Z,12.36
2022-10-02T05:51:21.966Z,12.35
2022-10-02T05:53:57.153Z,12.34
2022-10-02T05:56:30.259Z,12.34
2022-10-02T05:59:02.206Z,12.34
2022-10-02T06:01:34.558Z,12.34
2022-10-02T06:04:08.930Z,12.34
2022-10-02T06:06:42.518Z,12.33
2022-10-02T06:09:19.997Z,12.35
2022-10-02T06:11:52.576Z,12.34
2022-10-02T06:14:26.831Z,12.35
2022-10-02T06:17:01.946Z,12.38
2022-10-02T06:19:36.089Z,12.38
2022-10-02T06:22:08.784Z,12.40
2022-10-02T06:24:44.877Z,12.41
2022-10-02T06:27:18.750Z,12.41
2022-10-02T06:29:51.870Z,12.42
2022-10-02T06:32:26.857Z,12.42
2022-10-02T06:34:54.836Z,12.43
2022-10-02T06:37:42.174Z,12.45
2022-10-02T06:40:44.341Z,12.47
2022-10-02T06:43:27.154Z,12.50
2022-10-02T06:46:08.264Z,12.54
2022-10-02T06:48:46.172Z,12.57
2022-10-02T06:51:22.988Z,12.60
2022-10-02T06:54:09.031Z,12.62
2022-10-02T06:56:57.997Z,12.67
2022-10-02T06:59:37.834Z,12.72
2022-10-02T07:02:24.096Z,12.77
2022-10-02T07:05:04.166Z,12.84
2022-10-02T07:07:47.954Z,12.90
2022-10-02T07:10:30.425Z,12.96
2022-10-02T07:13:17.782Z,13.04
2022-10-02T07:16:07.704Z,13.10
2022-10-02T07:18:46.169Z,13.18
2022-10-02T07:21:22.064Z,13.23
2022-10-02T07:24:02.083Z,13.29
2022-10-02T07:26:50.132Z,13.34
2022-10-02T07:29:29.650Z,13.39
2022-10-02T07:32:32.661Z,13.44
2022-10-02T07:35:09.252Z,13.49
2022-10-02T07:37:47.370Z,13.53
2022-10-02T07:40:32.037Z,13.58
2022-10-02T07:43:30.377Z,13.64
2022-10-02T07:46:10.022Z,13.74
2022-10-02T07:48:56.315Z,13.83
2022-10-02T07:51:51.015Z,13.91
2022-10-02T07:54:34.917Z,14.01
2022-10-02T07:57:11.385Z,14.11
2022-10-02T07:59:43.377Z,14.24
2022-10-02T08:02:29.733Z,14.37
2022-10-02T08:05:01.781Z,14.60
2022-10-02T08:07:31.432Z,14.82
2022-10-02T08:10:04.042Z,14.95
2022-10-02T08:12:38.541Z,15.04
2022-10-02T08:15:08.213Z,15.14
2022-10-02T08:17:46.085Z,15.21
2022-10-02T08:20:27.399Z,15.27
2022-10-02T08:23:04.321Z,15.33
2022-10-02T08:25:41.093Z,15.37
2022-10-02T08:28:14.228Z,15.39
2022-10-02T08:30:42.112Z,15.43
2022-10-02T08:33:14.984Z,15.42
2022-10-02T08:35:51.814Z,15.52
2022-10-02T08:38:33.678Z,15.59
2022-10-02T08:41:43.206Z,15.73
2022-10-02T08:44:52.835Z,16.01
2022-10-02T08:48:00.210Z,16.25
2022-10-02T08:51:15.378Z,16.44
2022-10-02T08:54:19.505Z,16.59
2022-10-02T08:57:13.145Z,16.69
2022-10-02T09:00:09.448Z,16.78
2022-10-02T09:03:16.720Z,16.93
2022-10-02T09:06:30.816Z,17.12
2022-10-02T09:09:45.458Z,17.32
2022-10-02T09:12:58.227Z,17.51
2022-10-02T09:15:44.409Z,17.74
2022-10-02T09:18:19.361Z,17.94
2022-10-02T09:21:18.638Z,18.03
2022-10-02T09:24:23.594Z,17.99
2022-10-02T09:27:23.735Z,17.81
2022-10-02T09:30:17.315Z,17.74
2022-10-02T09:33:16.955Z,17.73
2022-10-02T09:36:07.429Z,17.71
2022-10-02T09:39:04.750Z,17.60
2022-10-02T09:42:06.489Z,17.56
2022-10-02T09:45:09.462Z,17.53
2022-10-02T09:48:14.549Z,17.65
2022-10-02T09:51:05.402Z,17.90
2022-10-02T09:54:04.035Z,18.20
2022-10-02T09:57:17.076Z,18.49
2022-10-02T10:00:12.690Z,18.81
2022-10-02T10:03:18.786Z,19.13
2022-10-02T10:06:35.418Z,19.51
2022-10-02T10:09:21.669Z,19.76
2022-10-02T10:12:41.342Z,19.71
2022-10-02T10:15:40.522Z,19.63
2022-10-02T10:18:44.394Z,19.55
2022-10-02T10:21:38.248Z,19.50
2022-10-02T10:24:35.878Z,19.49
2022-10-02T10:27:29.323Z,19.47
2022-10-02T10:30:21.383Z,19.42
2022-10-02T10:33:25.108Z,19.39
2022-10-02T10:36:46.478Z,19.60
2022-10-02T10:39:43.239Z,19.88
2022-10-02T10:43:03.419Z,20.12
2022-10-02T10:45:49.766Z,20.09
2022-10-02T10:48:35.123Z,19.99
2022-10-02T10:51:24.705Z,20.01
2022-10-02T10:54:22.837Z,20.02
2022-10-02T10:56:55.586Z,20.30
2022-10-02T11:00:12.099Z,20.59
2022-10-02T11:03:07.749Z,20.65
2022-10-02T11:06:12.454Z,20.45
2022-10-02T11:09:29.105Z,20.28
2022-10-02T11:12:24.377Z,20.09
2022-10-02T11:15:09.817Z,19.87
2022-10-02T11:18:17.067Z,19.65
2022-10-02T11:21:12.961Z,19.68
2022-10-02T11:23:51.254Z,19.76
2022-10-02T11:26:43.837Z,19.89
2022-10-02T11:29:41.638Z,20.43
2022-10-02T11:32:42.103Z,21.06
2022-10-02T11:35:33.316Z,21.45
2022-10-02T11:38:16.617Z,21.49
2022-10-02T11:41:11.191Z,21.44
2022-10-02T11:43:46.630Z,21.43
2022-10-02T11:46:36.520Z,21.57
2022-10-02T11:49:36.257Z,21.70
2022-10-02T11:52:24.987Z,22.06
2022-10-02T11:55:07.917Z,22.63
2022-10-02T11:57:50.097Z,23.31
2022-10-02T12:00:58.709Z,23.79
2022-10-02T12:03:36.461Z,24.02
2022-10-02T12:06:15.242Z,23.97
2022-10-02T12:08:54.641Z,24.00
2022-10-02T12:11:32.539Z,24.37
2022-10-02T12:14:24.398Z,24.97
2022-10-02T12:17:09.695Z,25.40
2022-10-02T12:20:03.908Z,26.01
2022-10-02T12:23:03.337Z,26.11
2022-10-02T12:25:59.281Z,25.61
2022-10-02T12:28:37.143Z,24.95
2022-10-02T12:31:12.132Z,24.51
2022-10-02T12:33:50.808Z,23.96
2022-10-02T12:36:40.382Z,23.50
2022-10-02T12:39:35.338Z,23.74
2022-10-02T12:42:36.365Z,24.12
2022-10-02T12:45:14.761Z,24.07
2022-10-02T12:48:07.289Z,24.22
2022-10-02T12:51:10.596Z,24.78
2022-10-02T12:54:08.493Z,25.14
2022-10-02T12:56:55.207Z,25.49
2022-10-02T12:59:28.141Z,25.68
2022-10-02T13:02:13.855Z,25.48
2022-10-02T13:05:08.477Z,25.22
2022-10-02T13:08:09.604Z,25.00
2022-10-02T13:10:43.373Z,24.82
2022-10-02T13:13:31.658Z,24.71
2022-10-02T13:16:05.480Z,24.64
2022-10-02T13:18:48.189Z,24.43
2022-10-02T13:21:25.567Z,24.43
2022-10-02T13:24:09.022Z,24.56
2022-10-02T13:26:49.004Z,25.09
2022-10-02T13:29:42.808Z,25.89
2022-10-02T13:32:32.345Z,26.33
2022-10-02T13:35:29.056Z,26.67
2022-10-02T13:38:14.277Z,26.37
2022-10-02T13:40:52.620Z,25.71
2022-10-02T13:43:34.550Z,25.10
2022-10-02T13:46:20.108Z,24.50
2022-10-02T13:48:58.799Z,24.10
2022-10-02T13:51:32.811Z,23.74
2022-10-02T13:54:20.768Z,23.40
2022-10-02T13:56:53.324Z,23.25
2022-10-02T13:59:48.245Z,23.44
2022-10-02T14:02:33.431Z,24.05
2022-10-02T14:05:06.834Z,24.61
2022-10-02T14:07:57.382Z,24.97
2022-10-02T14:10:37.985Z,25.37
2022-10-02T14:13:20.032Z,25.64
2022-10-02T14:15:59.479Z,25.69
2022-10-02T14:18:42.896Z,25.76
2022-10-02T14:21:21.789Z,25.90
2022-10-02T14:24:12.218Z,25.95
2022-10-02T14:26:55.018Z,26.07
2022-10-02T14:29:45.703Z,26.23
2022-10-02T14:32:36.309Z,26.32
2022-10-02T14:35:31.934Z,26.39
2022-10-02T14:38:27.262Z,26.50
2022-10-02T14:40:56.026Z,26.52
2022-10-02T14:43:45.456Z,26.40
2022-10-02T14:46:26.785Z,26.32
2022-10-02T14:49:28.036Z,26.25
2022-10-02T14:52:21.182Z,26.17
2022-10-02T14:55:07.582Z,26.16
2022-10-02T14:57:53.359Z,26.04
2022-10-02T15:00:24.427Z,25.79
2022-10-02T15:03:28.134Z,25.46
2022-10-02T15:06:25.397Z,25.12
2022-10-02T15:09:00.109Z,24.64
2022-10-02T15:11:52.116Z,24.26
2022-10-02T15:14:25.941Z,23.96
2022-10-02T15:17:18.467Z,23.64
2022-10-02T15:19:51.047Z,23.35
2022-10-02T15:22:22.537Z,23.11
2022-10-02T15:24:56.415Z,23.08
2022-10-02T15:27:25.607Z,22.98
2022-10-02T15:30:04.369Z,22.94
2022-10-02T15:32:56.493Z,23.04
2022-10-02T15:35:32.434Z,23.16
2022-10-02T15:38:21.192Z,23.25
2022-10-02T15:41:02.663Z,23.27
2022-10-02T15:43:48.465Z,23.20
2022-10-02T15:46:25.348Z,23.21
2022-10-02T15:49:01.742Z,23.20
2022-10-02T15:51:46.028Z,23.09
2022-10-02T15:54:29.851Z,23.02
2022-10-02T15:57:14.984Z,22.96
2022-10-02T16:00:03.094Z,22.94
2022-10-02T16:02:48.340Z,22.90
2022-10-02T16:05:29.392Z,22.84
2022-10-02T16:08:16.873Z,22.77
2022-10-02T16:11:01.498Z,22.71
2022-10-02T16:13:47.419Z,22.67
2022-10-02T16:16:34.744Z,22.71
2022-10-02T16:19:18.747Z,22.70
2022-10-02T16:22:15.607Z,22.52
2022-10-02T16:25:03.683Z,22.38
2022-10-02T16:27:49.980Z,22.18
2022-10-02T16:30:21.161Z,21.98
2022-10-02T16:33:15.569Z,21.75
2022-10-02T16:36:08.849Z,21.61
2022-10-02T16:38:48.022Z,21.46
2022-10-02T16:41:36.858Z,21.26
2022-10-02T16:44:18.746Z,21.13
2022-10-02T16:46:51.963Z,21.01
2022-10-02T16:49:30.397Z,20.90
2022-10-02T16:52:07.639Z,20.83
2022-10-02T16:54:44.926Z,20.68
2022-10-02T16:57:23.278Z,20.50
2022-10-02T17:00:00.945Z,20.37
2022-10-02T17:02:43.482Z,20.25
2022-10-02T17:05:24.656Z,20.10
2022-10-02T17:07:55.245Z,19.95
2022-10-02T17:10:32.905Z,19.81
2022-10-02T17:13:13.531Z,19.66
2022-10-02T17:15:49.838Z,19.52
2022-10-02T17:18:27.950Z,19.40
2022-10-02T17:20:59.425Z,19.30
2022-10-02T17:23:35.052Z,19.19
2022-10-02T17:26:06.958Z,19.12
2022-10-02T17:28:44.401Z,18.98
2022-10-02T17:31:25.314Z,18.83
2022-10-02T17:33:57.935Z,18.71
2022-10-02T17:36:34.589Z,18.60
2022-10-02T17:39:24.289Z,18.49
2022-10-02T17:41:56.498Z,18.38
2022-10-02T17:44:33.362Z,18.25
2022-10-02T17:47:22.487Z,18.12
2022-10-02T17:50:15.711Z,17.98
2022-10-02T17:53:03.912Z,17.90
2022-10-02T17:56:22.559Z,17.78
2022-10-02T17:59:04.571Z,17.69
2022-10-02T18:01:40.728Z,17.58
2022-10-02T18:04:18.715Z,17.52
2022-10-02T18:06:56.492Z,17.45
2022-10-02T18:09:33.996Z,17.38
2022-10-02T18:12:18.465Z,17.28
2022-10-02T18:15:10.421Z,17.17
2022-10-02T18:17:48.677Z,17.10
2022-10-02T18:20:25.802Z,17.04
2022-10-02T18:23:15.386Z,16.96
2022-10-02T18:25:54.087Z,16.91
2022-10-02T18:28:36.827Z,16.83
2022-10-02T18:31:33.187Z,16.76
2022-10-02T18:34:27.571Z,16.73
2022-10-02T18:37:10.546Z,16.71
2022-10-02T18:39:42.629Z,16.67
2022-10-02T18:42:39.922Z,16.62
2022-10-02T18:45:27.194Z,16.51
2022-10-02T18:48:03.557Z,16.42
2022-10-02T18:50:49.183Z,16.37
2022-10-02T18:53:39.633Z,16.28
2022-10-02T18:56:09.918Z,16.24
2022-10-02T18:58:51.365Z,16.12
2022-10-02T19:01:42.322Z,16.04
2022-10-02T19:04:40.509Z,15.98
2022-10-02T19:07:14.629Z,15.93
2022-10-02T19:09:42.546Z,15.90
2022-10-02T19:12:18.272Z,15.83
2022-10-02T19:14:46.953Z,15.72
2022-10-02T19:17:16.811Z,15.60
2022-10-02T19:19:44.843Z,15.48
2022-10-02T19:22:19.670Z,15.37
2022-10-02T19:24:50.490Z,15.31
2022-10-02T19:27:26.451Z,15.25
2022-10-02T19:29:57.799Z,15.13
2022-10-02T19:32:30.073Z,15.07
2022-10-02T19:35:03.396Z,15.05
2022-10-02T19:37:32.674Z,14.99
2022-10-02T19:40:04.184Z,14.89
2022-10-02T19:42:46.488Z,14.84
2022-10-02T19:45:25.451Z,14.78
2022-10-02T19:47:56.006Z,14.72
2022-10-02T19:50:27.919Z,14.64
2022-10-02T19:52:59.616Z,14.57
2022-10-02T19:55:30.319Z,14.50
2022-10-02T19:58:06.319Z,14.41
2022-10-02T20:00:38.789Z,14.31
2022-10-02T20:03:13.589Z,14.19
2022-10-02T20:05:43.025Z,14.09
2022-10-02T20:08:17.377Z,13.97
2022-10-02T20:10:52.832Z,13.86
2022-10-02T20:13:26.523Z,13.79
2022-10-02T20:16:22.227Z,13.78
2022-10-02T20:18:50.572Z,13.80
2022-10-02T20:21:25.132Z,13.86
2022-10-02T20:23:56.244Z,13.90
2022-10-02T20:26:29.742Z,13.91
2022-10-02T20:29:02.484Z,13.87
2022-10-02T20:31:39.706Z,13.82
2022-10-02T20:34:13.829Z,13.76
2022-10-02T20:36:55.871Z,13.74
2022-10-02T20:39:29.022Z,13.68
2022-10-02T20:42:02.958Z,13.56
2022-10-02T20:44:36.501Z,13.44
2022-10-02T20:47:37.366Z,13.38
2022-10-02T20:50:33.782Z,13.34
2022-10-02T20:53:44.432Z,13.25
2022-10-02T20:56:25.554Z,13.19
2022-10-02T20:59:27.958Z,13.20
2022-10-02T21:02:10.588Z,13.20
2022-10-02T21:05:11.046Z,13.19
2022-10-02T21:08:00.541Z,13.17
2022-10-02T21:10:55.814Z,13.09
2022-10-02T21:13:54.831Z,13.00
2022-10-02T21:16:53.537Z,12.92
2022-10-02T21:20:00.526Z,12.90
2022-10-02T21:23:10.032Z,12.92
2022-10-02T21:25:54.562Z,12.92
2022-10-02T21:28:49.927Z,12.93
2022-10-02T21:31:39.547Z,12.93
2022-10-02T21:34:22.385Z,12.91
2022-10-02T21:36:58.739Z,12.84
2022-10-02T21:40:00.254Z,12.70
2022-10-02T21:42:53.926Z,12.58
2022-10-02T21:46:04.659Z,12.54
2022-10-02T21:48:57.303Z,12.51
2022-10-02T21:52:09.196Z,12.46
2022-10-02T21:55:15.906Z,12.40
2022-10-02T21:58:40.428Z,12.30
2022-10-02T22:02:06.770Z,12.21
2022-10-02T22:04:47.387Z,12.15
2022-10-02T22:07:23.792Z,12.12
2022-10-02T22:10:00.098Z,12.11
2022-10-02T22:12:44.594Z,12.12
2022-10-02T22:15:18.122Z,12.13
2022-10-02T22:17:56.794Z,12.09
2022-10-02T22:20:51.631Z,12.09
2022-10-02T22:23:42.488Z,12.11
2022-10-02T22:26:32.161Z,12.12
2022-10-02T22:29:09.992Z,12.05
2022-10-02T22:31:54.562Z,12.00
2022-10-02T22:34:35.399Z,11.98
2022-10-02T22:37:18.188Z,11.93
2022-10-02T22:39:50.020Z,11.81
2022-10-02T22:42:23.485Z,11.72
2022-10-02T22:44:55.358Z,11.69
2022-10-02T22:47:30.270Z,11.69
2022-10-02T22:50:02.554Z,11.69
2022-10-02T22:52:38.038Z,11.71
2022-10-02T22:55:13.669Z,11.70
2022-10-02T22:57:54.542Z,11.68
2022-10-02T23:00:24.117Z,11.63
2022-10-02T23:02:57.947Z,11.52
2022-10-02T23:05:34.197Z,11.49
2022-10-02T23:08:13.606Z,11.45
2022-10-02T23:10:47.618Z,11.33
2022-10-02T23:13:22.904Z,11.22
2022-10-02T23:15:57.971Z,11.15
2022-10-02T23:18:40.760Z,11.06
2022-10-02T23:21:32.461Z,11.04
2022-10-02T23:24:07.916Z,10.95
2022-10-02T23:26:42.896Z,10.88
2022-10-02T23:29:25.626Z,10.82
2022-10-02T23:31:59.546Z,10.77
2022-10-02T23:34:36.427Z,10.74
2022-10-02T23:37:15.103Z,10.70
2022-10-02T23:39:51.464Z,10.70
2022-10-02T23:42:27.626Z,10.67
2022-10-02T23:45:07.949Z,10.64
2022-10-02T23:47:51.013Z,10.62
2022-10-02T23:50:25.355Z,10.60
2022-10-02T23:53:06.917Z,10.57
2022-10-02T23:55:42.096Z,10.55
2022-10-02T23:58:18.809Z,10.56
